.
WxDataArchive / Data Records for 2015-08-26
2015-08-25 August 2015 2015-08-27

Data Records for Wednesday, 26 August 2015

Time	Temp	Chill	HIndex	Humid	Dewpt	 Wind 	HiWind	WindDir	Rain 	Barom
-----	----	-----	------	-----	-----	------	------	-------	-----	-----
00:00	56.5	56.5	56.5	82	51.1	0	0	---	0.00	30.037 
00:05	56.3	56.3	56.3	83	51.2	0	0	---	0.00	30.037 
00:10	56.2	56.2	56.2	83	51.1	0	0	---	0.00	30.037 
00:15	55.9	55.9	55.9	84	51.1	0	0	---	0.00	30.038 
00:20	55.7	55.7	55.7	84	50.9	0	0	---	0.00	30.038 
00:25	55.6	55.6	55.6	85	51.2	0	0	---	0.00	30.038 
00:30	55.4	55.4	55.4	85	51.0	0	0	---	0.00	30.038 
00:35	55.1	55.1	55.1	85	50.7	0	0	---	0.00	30.038 
00:40	55.1	55.1	55.1	86	51.0	0	0	---	0.00	30.038 
00:45	55.1	55.1	55.1	86	51.0	0	0	---	0.00	30.041 
00:50	55.0	55.0	55.0	87	51.2	0	0	---	0.00	30.041 
00:55	55.0	55.0	55.0	87	51.2	0	0	---	0.00	30.041 
01:00	55.0	55.0	55.0	88	51.5	0	0	---	0.00	30.041 
01:05	55.0	55.0	55.0	88	51.5	0	0	---	0.00	30.041 
01:10	55.0	55.0	55.0	88	51.5	0	0	---	0.00	30.041 
01:15	55.0	55.0	55.0	88	51.5	0	0	---	0.00	30.039 
01:20	55.0	55.0	55.0	88	51.5	0	0	---	0.00	30.039 
01:25	55.0	55.0	55.0	88	51.5	0	0	---	0.00	30.039 
01:30	54.8	54.8	54.8	89	51.6	0	0	---	0.00	30.043 
01:35	54.8	54.8	54.8	89	51.6	0	0	---	0.00	30.043 
01:40	54.7	54.7	54.7	89	51.5	0	0	---	0.00	30.043 
01:45	54.7	54.7	54.7	89	51.5	0	0	---	0.00	30.043 
01:50	54.5	54.5	54.5	89	51.3	0	0	---	0.00	30.043 
01:55	54.5	54.5	54.5	89	51.3	0	0	---	0.00	30.043 
02:00	54.5	54.5	54.5	89	51.3	0	0	---	0.00	30.043 
02:05	54.5	54.5	54.5	90	51.6	0	0	---	0.00	30.043 
02:10	54.5	54.5	54.5	90	51.6	0	0	---	0.00	30.043 
02:15	54.5	54.5	54.5	90	51.6	0	0	---	0.00	30.039 
02:20	54.4	54.4	54.4	90	51.5	0	0	---	0.00	30.039 
02:25	54.4	54.4	54.4	90	51.5	0	0	---	0.00	30.039 
02:30	54.2	54.2	54.2	90	51.3	0	0	---	0.00	30.041 
02:35	54.2	54.2	54.2	90	51.3	0	0	---	0.00	30.041 
02:40	54.2	54.2	54.2	90	51.3	0	0	---	0.00	30.041 
02:45	54.1	54.1	54.1	91	51.5	0	0	---	0.00	30.037 
02:50	54.1	54.1	54.1	91	51.5	0	0	---	0.00	30.037 
02:55	54.2	54.2	54.2	91	51.6	0	0	---	0.00	30.037 
03:00	54.2	54.2	54.2	91	51.6	0	0	---	0.00	30.035 
03:05	54.4	54.4	54.4	91	51.8	0	0	---	0.00	30.035 
03:10	54.4	54.4	54.4	92	52.1	0	0	---	0.00	30.035 
03:15	54.4	54.4	54.4	92	52.1	0	0	---	0.00	30.032 
03:20	54.5	54.5	54.5	92	52.2	0	0	---	0.00	30.032 
03:25	54.5	54.5	54.5	92	52.2	0	0	---	0.00	30.032 
03:30	54.7	54.7	54.7	92	52.4	0	0	---	0.00	30.029 
03:35	54.7	54.7	54.7	92	52.4	0	0	---	0.00	30.029 
03:40	54.7	54.7	54.7	92	52.4	0	0	---	0.00	30.029 
03:45	54.8	54.8	54.8	92	52.5	0	0	---	0.00	30.030 
03:50	55.0	55.0	55.0	92	52.7	0	0	---	0.00	30.030 
03:55	55.1	55.1	55.1	92	52.8	0	0	---	0.00	30.030 
04:00	55.3	55.3	55.3	92	53.0	0	0	---	0.00	30.033 
04:05	55.3	55.3	55.3	92	53.0	0	0	---	0.00	30.033 
04:10	55.4	55.4	55.4	92	53.1	0	0	---	0.00	30.033 
04:15	55.4	55.4	55.4	92	53.1	0	0	---	0.00	30.035 
04:20	55.6	55.6	55.6	92	53.3	0	0	---	0.00	30.035 
04:25	55.6	55.6	55.6	92	53.3	0	0	---	0.00	30.035 
04:30	55.7	55.7	55.7	92	53.4	0	0	---	0.00	30.033 
04:35	55.7	55.7	55.7	92	53.4	0	0	---	0.00	30.033 
04:40	55.9	55.9	55.9	92	53.6	0	0	---	0.00	30.033 
04:45	56.0	56.0	56.0	92	53.7	0	0	---	0.00	30.034 
04:50	56.2	56.2	56.2	92	53.9	0	0	---	0.00	30.034 
04:55	56.3	56.3	56.3	92	54.0	0	0	---	0.00	30.034 
05:00	56.3	56.3	56.3	92	54.0	0	0	---	0.00	30.033 
05:05	56.5	56.5	56.5	92	54.2	0	0	---	0.00	30.033 
05:10	56.5	56.5	56.5	92	54.2	0	0	---	0.00	30.033 
05:15	56.6	56.6	56.6	92	54.3	0	0	---	0.00	30.036 
05:20	56.6	56.6	56.6	92	54.3	0	0	---	0.00	30.036 
05:25	56.7	56.7	56.7	92	54.4	0	0	---	0.00	30.036 
05:30	56.9	56.9	56.9	91	54.3	0	0	---	0.00	30.042 
05:35	57.0	57.0	57.0	91	54.4	0	0	---	0.00	30.042 
05:40	57.0	57.0	57.0	91	54.4	0	0	---	0.00	30.042 
05:45	57.0	57.0	57.0	91	54.4	0	0	---	0.00	30.044 
05:50	57.2	57.2	57.2	91	54.6	0	0	---	0.00	30.044 
05:55	57.2	57.2	57.2	90	54.3	0	0	---	0.00	30.044 
06:00	57.2	57.2	57.2	90	54.3	0	0	---	0.00	30.044 
06:05	57.3	57.3	57.3	90	54.4	0	0	---	0.00	30.044 
06:10	57.3	57.3	57.3	90	54.4	0	0	---	0.00	30.044 
06:15	57.5	57.5	57.5	90	54.6	0	0	---	0.00	30.048 
06:20	57.5	57.5	57.5	90	54.6	0	0	---	0.00	30.048 
06:25	57.5	57.5	57.5	90	54.6	0	0	---	0.00	30.048 
06:30	57.5	57.5	57.5	90	54.6	0	0	---	0.00	30.047 
06:35	57.5	57.5	57.5	90	54.6	0	0	---	0.00	30.047 
06:40	57.6	57.6	57.6	90	54.7	0	0	---	0.00	30.047 
06:45	57.6	57.6	57.6	89	54.4	0	0	---	0.00	30.050 
06:50	57.6	57.6	57.6	89	54.4	0	0	---	0.00	30.050 
06:55	57.6	57.6	57.6	89	54.4	0	0	---	0.00	30.050 
07:00	57.6	57.6	57.6	89	54.4	0	0	---	0.00	30.051 
07:05	57.6	57.6	57.6	89	54.4	0	0	---	0.00	30.051 
07:10	57.8	57.8	57.8	88	54.3	0	0	---	0.00	30.051 
07:15	57.8	57.8	57.8	88	54.3	0	0	---	0.00	30.061 
07:20	57.8	57.8	57.8	88	54.3	0	0	---	0.00	30.061 
07:25	57.8	57.8	57.8	88	54.3	0	0	---	0.00	30.061 
07:30	58.0	58.0	58.0	88	54.5	0	0	---	0.00	30.066 
07:35	58.0	58.0	58.0	88	54.5	0	0	---	0.00	30.066 
07:40	58.0	58.0	58.0	88	54.5	0	0	---	0.00	30.066 
07:45	58.1	58.1	58.1	88	54.6	0	0	---	0.00	30.068 
07:50	58.1	58.1	58.1	88	54.6	0	0	---	0.00	30.068 
07:55	58.3	58.3	58.3	88	54.8	0	0	---	0.00	30.068 
08:00	58.3	58.3	58.3	87	54.4	0	0	---	0.00	30.073 
08:05	58.4	58.4	58.4	87	54.5	0	0	---	0.00	30.073 
08:10	58.6	58.6	58.6	87	54.7	0	0	---	0.00	30.073 
08:15	58.6	58.6	58.6	87	54.7	0	0	---	0.00	30.080 
08:20	58.7	58.7	58.7	86	54.5	0	0	---	0.00	30.080 
08:25	58.9	58.9	58.9	86	54.7	0	0	---	0.00	30.080 
08:30	59.0	59.0	59.0	86	54.8	0	0	---	0.00	30.082 
08:35	59.2	59.2	59.2	85	54.7	0	0	---	0.00	30.082 
08:40	59.3	59.3	59.3	84	54.5	0	0	---	0.00	30.082 
08:45	59.3	59.3	59.3	84	54.5	0	0	---	0.00	30.084 
08:50	59.5	59.5	59.5	84	54.7	0	0	---	0.00	30.084 
08:55	59.6	59.6	59.6	83	54.4	0	0	---	0.00	30.084 
09:00	59.8	59.8	59.8	81	54.0	0	1	315	0.00	30.086 
09:05	59.9	59.9	59.9	81	54.1	0	1	315	0.00	30.086 
09:10	59.9	59.9	59.9	81	54.1	0	1	315	0.00	30.086 
09:15	60.1	60.1	60.1	80	53.9	0	1	315	0.00	30.091 
09:20	60.2	60.2	60.2	80	54.0	0	0	---	0.00	30.091 
09:25	60.2	60.2	60.2	80	54.0	0	1	315	0.00	30.091 
09:30	60.5	60.5	60.5	80	54.3	0	0	---	0.00	30.096 
09:35	60.5	60.5	60.5	79	54.0	0	1	315	0.00	30.096 
09:40	60.7	60.7	60.7	79	54.1	0	1	315	0.00	30.096 
09:45	60.7	60.7	60.7	77	53.4	0	1	315	0.00	30.097 
09:50	60.7	60.7	60.7	77	53.4	0	1	315	0.00	30.097 
09:55	60.9	60.9	60.9	77	53.6	0	1	315	0.00	30.097 
10:00	60.9	60.9	60.9	76	53.3	0	1	315	0.00	30.099 
10:05	60.9	60.9	60.9	76	53.3	0	1	315	0.00	30.099 
10:10	61.0	61.0	61.0	77	53.7	0	1	315	0.00	30.099 
10:15	61.2	61.2	61.2	77	53.9	0	1	315	0.00	30.107 
10:20	61.2	61.2	61.2	76	53.6	0	2	315	0.00	30.107 
10:25	61.0	61.0	61.0	76	53.4	0	2	315	0.00	30.107 
10:30	60.7	60.7	60.7	77	53.4	0	2	315	0.00	30.111 
10:35	60.5	60.5	60.5	79	54.0	1	3	315	0.00	30.111 
10:40	60.4	60.4	60.4	80	54.2	1	4	315	0.00	30.111 
10:45	60.1	60.1	60.1	83	54.9	0	2	315	0.00	30.117 
10:50	59.6	59.6	59.6	84	54.8	0	2	315	0.00	30.117 
10:55	59.5	59.5	59.5	87	55.6	0	1	315	0.00	30.117 
11:00	59.6	59.6	59.6	88	56.0	0	1	315	0.00	30.109 
11:05	59.8	59.8	59.8	88	56.2	0	0	---	0.00	30.109 
11:10	60.2	60.2	60.2	88	56.6	0	1	315	0.00	30.109 
11:15	60.4	60.4	60.4	88	56.8	0	1	315	0.00	30.116 
11:20	60.5	60.5	60.5	88	56.9	0	1	315	0.00	30.116 
11:25	61.0	61.0	61.0	88	57.4	0	1	315	0.00	30.116 
11:30	61.5	61.5	61.5	86	57.3	0	1	315	0.00	30.115 
11:35	61.8	61.8	61.8	85	57.2	0	2	315	0.00	30.115 
11:40	62.1	62.1	62.1	84	57.2	0	1	315	0.00	30.115 
11:45	62.3	62.3	62.3	83	57.1	0	1	315	0.00	30.115 
11:50	62.3	62.3	62.3	82	56.7	0	2	315	0.00	30.115 
11:55	62.3	62.3	62.3	81	56.4	0	1	315	0.00	30.115 
12:00	62.6	62.6	62.6	81	56.7	0	1	315	0.00	30.114 
12:05	62.7	62.7	62.7	80	56.4	0	1	315	0.00	30.114 
12:10	62.7	62.7	62.7	79	56.1	0	2	315	0.00	30.114 
12:15	62.9	62.9	62.9	79	56.3	0	2	315	0.00	30.115 
12:20	63.1	63.1	63.1	79	56.5	0	1	315	0.00	30.115 
12:25	63.2	63.2	63.2	78	56.2	0	3	315	0.00	30.115 
12:30	63.5	63.5	63.5	79	56.9	0	1	315	0.00	30.114 
12:35	63.7	63.7	63.7	77	56.3	1	3	315	0.00	30.114 
12:40	63.7	63.7	63.7	76	56.0	1	2	315	0.00	30.114 
12:45	63.9	63.9	63.9	77	56.5	0	2	315	0.00	30.114 
12:50	64.0	64.0	64.0	75	55.9	1	4	315	0.00	30.114 
12:55	64.0	64.0	64.0	75	55.9	1	2	315	0.00	30.114 
13:00	64.2	64.2	64.2	76	56.5	0	2	315	0.00	30.111 
13:05	64.3	64.3	64.3	76	56.6	0	2	315	0.00	30.111 
13:10	64.3	64.3	64.3	75	56.2	0	2	315	0.00	30.111 
13:15	64.5	64.5	64.5	75	56.4	0	1	315	0.00	30.103 
13:20	64.7	64.7	64.7	74	56.2	0	2	315	0.00	30.103 
13:25	64.8	64.8	64.8	74	56.3	0	2	315	0.00	30.103 
13:30	64.8	64.8	64.8	74	56.3	0	1	315	0.00	30.100 
13:35	65.0	65.0	65.0	74	56.5	0	1	315	0.00	30.100 
13:40	65.0	65.0	65.0	74	56.5	0	1	315	0.00	30.100 
13:45	65.0	65.0	65.0	74	56.5	0	2	315	0.00	30.100 
13:50	65.2	65.2	65.2	74	56.7	0	3	315	0.00	30.100 
13:55	65.3	65.3	65.3	74	56.8	0	2	315	0.00	30.100 
14:00	65.3	65.3	65.3	74	56.8	0	2	315	0.00	30.099 
14:05	65.6	65.6	65.6	74	57.1	0	2	315	0.00	30.099 
14:10	65.6	65.6	65.6	73	56.7	0	1	315	0.00	30.099 
14:15	65.8	65.8	65.8	73	56.9	0	2	315	0.00	30.098 
14:20	65.8	65.8	65.8	73	56.9	0	1	315	0.00	30.098 
14:25	66.0	66.0	66.0	73	57.1	0	1	315	0.00	30.098 
14:30	66.0	66.0	66.0	72	56.7	0	2	315	0.00	30.098 
14:35	66.1	66.1	66.1	73	57.2	0	1	315	0.00	30.098 
14:40	66.3	66.3	66.3	72	57.0	0	2	315	0.00	30.098 
14:45	66.6	66.6	66.6	71	56.9	1	3	315	0.00	30.097 
14:50	66.4	66.4	66.4	70	56.3	1	3	315	0.00	30.097 
14:55	66.4	66.4	66.4	69	55.9	2	4	315	0.00	30.097 
15:00	66.4	66.4	66.4	70	56.3	1	3	315	0.00	30.098 
15:05	66.4	66.4	66.4	70	56.3	1	3	315	0.00	30.098 
15:10	66.4	66.4	66.4	70	56.3	0	2	315	0.00	30.098 
15:15	66.6	66.6	66.6	70	56.5	1	3	315	0.00	30.095 
15:20	66.6	66.6	66.6	69	56.1	1	3	315	0.00	30.095 
15:25	66.8	66.8	66.8	69	56.3	0	2	315	0.00	30.095 
15:30	66.8	66.8	66.8	69	56.3	1	4	315	0.00	30.095 
15:35	66.6	66.6	66.6	69	56.1	1	3	315	0.00	30.095 
15:40	66.6	66.6	66.6	70	56.5	0	2	315	0.00	30.095 
15:45	66.6	66.6	66.6	70	56.5	1	2	315	0.00	30.093 
15:50	66.6	66.6	66.6	70	56.5	1	3	315	0.00	30.093 
15:55	66.4	66.4	66.4	69	55.9	1	3	315	0.00	30.093 
16:00	66.1	66.1	66.1	70	56.0	2	4	315	0.00	30.091 
16:05	65.8	65.8	65.8	73	56.9	1	4	315	0.00	30.091 
16:10	65.5	65.5	65.5	73	56.6	2	4	292	0.00	30.091 
16:15	65.3	65.3	65.3	74	56.8	1	4	292	0.00	30.092 
16:20	65.2	65.2	65.2	75	57.1	0	2	292	0.00	30.092 
16:25	65.2	65.2	65.2	75	57.1	0	1	292	0.00	30.092 
16:30	65.2	65.2	65.2	75	57.1	0	3	292	0.00	30.094 
16:35	65.2	65.2	65.2	75	57.1	0	1	292	0.00	30.094 
16:40	65.2	65.2	65.2	75	57.1	0	2	292	0.00	30.094 
16:45	65.3	65.3	65.3	74	56.8	0	1	292	0.00	30.092 
16:50	65.5	65.5	65.5	74	57.0	0	2	292	0.00	30.092 
16:55	65.5	65.5	65.5	73	56.6	0	2	292	0.00	30.092 
17:00	65.6	65.6	65.6	74	57.1	0	1	292	0.00	30.086 
17:05	65.8	65.8	65.8	73	56.9	0	1	292	0.00	30.086 
17:10	66.0	66.0	66.0	74	57.5	0	1	292	0.00	30.086 
17:15	66.0	66.0	66.0	73	57.1	0	1	292	0.00	30.092 
17:20	66.0	66.0	66.0	73	57.1	0	1	292	0.00	30.092 
17:25	66.0	66.0	66.0	72	56.7	0	2	292	0.00	30.092 
17:30	66.0	66.0	66.0	73	57.1	0	1	292	0.00	30.089 
17:35	66.0	66.0	66.0	73	57.1	0	1	292	0.00	30.089 
17:40	65.8	65.8	65.8	73	56.9	0	1	292	0.00	30.089 
17:45	65.8	65.8	65.8	72	56.5	0	2	292	0.00	30.091 
17:50	65.8	65.8	65.8	73	56.9	0	1	292	0.00	30.091 
17:55	66.0	66.0	66.0	73	57.1	0	2	292	0.00	30.091 
18:00	66.0	66.0	66.0	72	56.7	0	3	315	0.00	30.094 
18:05	66.0	66.0	66.0	73	57.1	0	2	315	0.00	30.094 
18:10	66.0	66.0	66.0	72	56.7	0	1	315	0.00	30.094 
18:15	66.1	66.1	66.1	73	57.2	0	1	315	0.00	30.093 
18:20	66.0	66.0	66.0	73	57.1	0	3	315	0.00	30.093 
18:25	65.8	65.8	65.8	73	56.9	0	1	315	0.00	30.093 
18:30	65.6	65.6	65.6	74	57.1	0	4	315	0.00	30.094 
18:35	65.3	65.3	65.3	75	57.2	0	3	315	0.00	30.094 
18:40	65.3	65.3	65.3	75	57.2	0	1	315	0.00	30.094 
18:45	65.2	65.2	65.2	75	57.1	0	1	315	0.00	30.096 
18:50	65.2	65.2	65.2	74	56.7	0	1	315	0.00	30.096 
18:55	65.2	65.2	65.2	74	56.7	0	2	315	0.00	30.096 
19:00	65.2	65.2	65.2	74	56.7	0	1	315	0.00	30.096 
19:05	65.0	65.0	65.0	74	56.5	0	1	315	0.00	30.096 
19:10	65.2	65.2	65.2	75	57.1	0	1	315	0.00	30.096 
19:15	65.2	65.2	65.2	75	57.1	0	1	315	0.00	30.095 
19:20	65.2	65.2	65.2	74	56.7	0	1	315	0.00	30.095 
19:25	65.2	65.2	65.2	75	57.1	0	1	315	0.00	30.095 
19:30	65.2	65.2	65.2	75	57.1	0	1	315	0.00	30.093 
19:35	65.2	65.2	65.2	76	57.4	0	0	---	0.00	30.093 
19:40	65.0	65.0	65.0	76	57.2	0	1	315	0.00	30.093 
19:45	65.0	65.0	65.0	76	57.2	0	2	315	0.00	30.094 
19:50	65.0	65.0	65.0	76	57.2	0	1	315	0.00	30.094 
19:55	64.8	64.8	64.8	76	57.0	0	1	315	0.00	30.094 
20:00	64.8	64.8	64.8	77	57.4	0	0	---	0.00	30.096 
20:05	64.8	64.8	64.8	77	57.4	0	1	315	0.00	30.096 
20:10	64.7	64.7	64.7	77	57.3	0	0	---	0.00	30.096 
20:15	64.7	64.7	64.7	77	57.3	0	0	---	0.00	30.093 
20:20	64.5	64.5	64.5	77	57.1	0	0	---	0.00	30.093 
20:25	64.5	64.5	64.5	78	57.5	0	0	---	0.00	30.093 
20:30	64.3	64.3	64.3	78	57.3	0	0	---	0.00	30.094 
20:35	64.3	64.3	64.3	79	57.6	0	0	---	0.00	30.094 
20:40	64.2	64.2	64.2	78	57.2	0	0	---	0.00	30.094 
20:45	64.0	64.0	64.0	78	57.0	0	0	---	0.00	30.097 
20:50	63.9	63.9	63.9	77	56.5	0	0	---	0.00	30.097 
20:55	63.9	63.9	63.9	77	56.5	0	1	315	0.00	30.097 
21:00	63.7	63.7	63.7	77	56.3	0	0	---	0.00	30.108 
21:05	63.5	63.5	63.5	78	56.5	0	0	---	0.00	30.108 
21:10	63.5	63.5	63.5	78	56.5	0	1	315	0.00	30.108 
21:15	63.4	63.4	63.4	77	56.1	0	0	---	0.00	30.109 
21:20	63.4	63.4	63.4	77	56.1	0	1	315	0.00	30.109 
21:25	63.2	63.2	63.2	77	55.9	0	1	315	0.00	30.109 
21:30	63.2	63.2	63.2	77	55.9	0	1	315	0.00	30.112 
21:35	63.2	63.2	63.2	77	55.9	0	1	315	0.00	30.112 
21:40	63.1	63.1	63.1	78	56.1	0	1	315	0.00	30.112 
21:45	63.1	63.1	63.1	78	56.1	0	1	315	0.00	30.111 
21:50	62.9	62.9	62.9	79	56.3	0	0	---	0.00	30.111 
21:55	62.7	62.7	62.7	79	56.1	0	0	---	0.00	30.111 
22:00	62.6	62.6	62.6	80	56.3	0	1	315	0.00	30.114 
22:05	62.4	62.4	62.4	80	56.1	0	1	315	0.00	30.114 
22:10	62.3	62.3	62.3	81	56.4	0	1	315	0.00	30.114 
22:15	62.1	62.1	62.1	81	56.2	0	1	315	0.00	30.120 
22:20	62.0	62.0	62.0	82	56.4	0	1	315	0.00	30.120 
22:25	61.8	61.8	61.8	82	56.2	0	0	---	0.00	30.120 
22:30	61.6	61.6	61.6	82	56.0	0	0	---	0.00	30.123 
22:35	61.6	61.6	61.6	82	56.0	0	1	315	0.00	30.123 
22:40	61.5	61.5	61.5	83	56.3	0	0	---	0.00	30.123 
22:45	61.3	61.3	61.3	83	56.1	0	0	---	0.00	30.127 
22:50	61.2	61.2	61.2	83	56.0	0	0	---	0.00	30.127 
22:55	61.2	61.2	61.2	83	56.0	0	0	---	0.00	30.127 
23:00	61.0	61.0	61.0	84	56.1	0	0	---	0.00	30.129 
23:05	60.9	60.9	60.9	84	56.0	0	0	---	0.00	30.129 
23:10	60.9	60.9	60.9	84	56.0	0	0	---	0.00	30.129 
23:15	60.7	60.7	60.7	84	55.8	0	0	---	0.00	30.126 
23:20	60.7	60.7	60.7	84	55.8	0	0	---	0.00	30.126 
23:25	60.7	60.7	60.7	84	55.8	0	0	---	0.00	30.126 
23:30	60.5	60.5	60.5	85	56.0	0	0	---	0.00	30.125 
23:35	60.5	60.5	60.5	85	56.0	0	1	315	0.00	30.125 
23:40	60.5	60.5	60.5	85	56.0	0	0	---	0.00	30.125 
23:45	60.4	60.4	60.4	85	55.9	0	0	---	0.00	30.127 
23:50	60.4	60.4	60.4	85	55.9	0	0	---	0.00	30.127 
23:55	60.2	60.2	60.2	85	55.7	0	0	---	0.00	30.127 

CoCoRaHS
IN-AL-39
A2 Web Hosting
Creative Commons License
GoDaddy
search engine by freefind advanced

loaded 2018-11-15 03:15:46 • last modified 2010-11-18 10:43:29
Privacy PolicyDisclaimer
• wx.awcolley.com is powered by PmWiki v.2002016 •
• all content (unless otherwise noted) © 2018 A W Colley